Time;durP1;ratioP1;P1;durP2;ratioP2;P2;SDS_P1;SDS_P2;PMS_P1;PMS_P2;Temp;Humidity;BMP_temperature;BMP_pressure;BME280_temperature;BME280_humidity;BME280_pressure;Samples;Min_cycle;Max_cycle;Signal;HPM_P1;HPM_P2
2021/11/01 00:00:08;;;;;;;5.70;4.50;;;;;;;17.19;63.34;99313.13;5099736;28;20210;-67
2021/11/01 00:02:33;;;;;;;5.57;5.17;;;;;;;17.27;62.97;99315.44;5099993;28;20201;-66
2021/11/01 00:04:58;;;;;;;5.33;4.83;;;;;;;17.20;63.49;99316.59;5099654;28;20678;-66
2021/11/01 00:07:23;;;;;;;5.03;4.50;;;;;;;16.81;64.39;99329.47;5100000;28;20210;-64
2021/11/01 00:09:49;;;;;;;4.80;4.40;;;;;;;17.05;64.28;99326.84;5099812;28;20160;-65
2021/11/01 00:12:14;;;;;;;5.23;4.83;;;;;;;17.14;63.90;99333.50;5099350;28;20427;-65
2021/11/01 00:14:40;;;;;;;4.90;4.50;;;;;;;16.98;65.07;99335.88;5099404;28;20168;-65
2021/11/01 00:17:05;;;;;;;4.17;3.83;;;;;;;17.17;64.50;99347.41;5099786;28;20164;-64
2021/11/01 00:19:30;;;;;;;5.20;4.20;;;;;;;17.42;63.83;99342.94;5098369;28;20226;-65
2021/11/01 00:21:56;;;;;;;4.83;4.07;;;;;;;17.03;65.20;99360.25;5098967;28;20168;-64
2021/11/01 00:24:21;;;;;;;4.37;3.97;;;;;;;17.33;64.65;99365.22;5099374;28;20192;-64
2021/11/01 00:26:46;;;;;;;4.73;4.33;;;;;;;17.32;65.11;99360.91;5099133;28;20203;-65
2021/11/01 00:29:12;;;;;;;4.47;4.07;;;;;;;17.06;65.98;99361.91;5099061;28;20168;-64
2021/11/01 00:31:37;;;;;;;5.07;3.73;;;;;;;16.98;66.76;99375.38;5099432;28;20224;-65
2021/11/01 00:34:03;;;;;;;4.63;3.77;;;;;;;16.66;68.32;99361.66;5098427;28;20597;-64
2021/11/01 00:36:28;;;;;;;4.37;4.07;;;;;;;16.58;68.57;99347.94;5098263;28;20168;-63
2021/11/01 00:38:54;;;;;;;4.20;3.80;;;;;;;16.63;68.76;99346.84;5099242;28;20248;-65
2021/11/01 00:41:19;;;;;;;8.00;3.70;;;;;;;16.52;69.53;99348.16;5098226;28;20168;-64
2021/11/01 00:43:45;;;;;;;4.63;4.20;;;;;;;16.23;70.93;99336.94;5098942;28;20211;-64
2021/11/01 00:46:10;;;;;;;4.30;3.90;;;;;;;16.18;71.04;99344.97;5099395;28;20183;-64
2021/11/01 00:48:36;;;;;;;5.10;4.60;;;;;;;16.33;70.85;99343.56;5098697;28;20437;-64
2021/11/01 00:51:01;;;;;;;4.87;4.37;;;;;;;16.13;71.86;99358.28;5098467;28;20226;-64
2021/11/01 00:53:32;;;;;;;4.87;4.47;;;;;;;16.20;71.62;99369.44;5099188;28;20409;-64
2021/11/01 00:55:58;;;;;;;4.40;4.00;;;;;;;16.19;70.18;99359.84;5097878;28;20529;-65
2021/11/01 00:58:24;;;;;;;3.97;3.33;;;;;;;15.61;63.92;99374.06;5098497;28;20425;-65
2021/11/01 01:00:50;;;;;;;3.93;3.20;;;;;;;15.73;62.26;99380.66;5098884;28;20413;-64
2021/11/01 01:03:16;;;;;;;3.63;3.00;;;;;;;15.64;61.08;99391.47;5098471;28;20457;-65
2021/11/01 01:05:43;;;;;;;5.23;3.20;;;;;;;15.47;59.97;99379.75;5098457;28;20168;-64
2021/11/01 01:08:13;;;;;;;5.53;3.67;;;;;;;15.47;61.26;99373.66;5098951;28;20406;-65
2021/11/01 01:10:39;;;;;;;8.90;3.50;;;;;;;15.28;61.59;99371.59;5098257;28;20385;-65
2021/11/01 01:13:05;;;;;;;5.93;3.67;;;;;;;15.48;61.71;99368.34;5098381;28;20845;-65
2021/11/01 01:15:36;;;;;;;10.40;3.83;;;;;;;15.42;62.58;99368.53;5098817;28;20548;-65
2021/11/01 01:18:07;;;;;;;7.00;3.57;;;;;;;15.15;63.24;99368.53;5100133;28;20464;-66
2021/11/01 01:20:33;;;;;;;10.80;3.60;;;;;;;15.16;62.79;99382.50;5101831;28;20373;-64
2021/11/01 01:22:58;;;;;;;9.23;3.60;;;;;;;15.06;63.71;99371.44;5102237;28;20469;-65
2021/11/01 01:25:30;;;;;;;6.97;3.80;;;;;;;14.87;64.21;99375.50;5099515;28;20178;-64
2021/11/01 01:27:56;;;;;;;6.87;3.50;;;;;;;14.92;64.69;99411.19;5098730;28;20454;-65
2021/11/01 01:30:23;;;;;;;8.40;4.43;;;;;;;14.71;66.10;99415.31;5098583;28;20421;-64
2021/11/01 01:32:48;;;;;;;14.23;3.90;;;;;;;14.52;66.42;99424.56;5098194;28;20168;-65
2021/11/01 01:35:14;;;;;;;7.40;3.93;;;;;;;14.82;65.55;99415.00;5101267;28;20820;-64
2021/11/01 01:37:40;;;;;;;9.20;3.27;;;;;;;14.69;66.63;99413.63;5102367;28;20163;-64
2021/11/01 01:40:07;;;;;;;8.87;3.90;;;;;;;14.70;66.53;99425.84;5101701;28;20722;-64
2021/11/01 01:42:34;;;;;;;7.07;3.90;;;;;;;14.80;66.08;99416.81;5102539;28;20711;-64
2021/11/01 01:44:59;;;;;;;11.60;4.30;;;;;;;14.87;66.29;99407.88;5102377;28;20425;-64
2021/11/01 01:47:24;;;;;;;11.27;3.83;;;;;;;14.59;66.76;99407.78;5102569;28;20414;-64
2021/11/01 01:49:50;;;;;;;9.80;4.73;;;;;;;14.79;66.76;99397.59;5102687;28;20221;-64
2021/11/01 01:52:16;;;;;;;11.17;3.90;;;;;;;14.95;66.03;99416.38;5101710;28;20222;-64
2021/11/01 01:54:42;;;;;;;8.07;4.00;;;;;;;14.75;66.61;99414.31;5102002;28;20164;-64
2021/11/01 01:57:07;;;;;;;8.27;3.60;;;;;;;14.93;66.27;99410.28;5102538;28;20410;-64
2021/11/01 01:59:32;;;;;;;7.97;4.60;;;;;;;14.86;66.49;99395.66;5101907;28;20191;-64
2021/11/01 02:01:58;;;;;;;6.87;4.07;;;;;;;15.05;66.29;99402.97;5101718;28;20180;-64
2021/11/01 02:04:24;;;;;;;11.40;4.00;;;;;;;14.98;66.43;99399.69;5102178;28;20578;-64
2021/11/01 02:07:15;;;;;;;8.73;4.20;;;;;;;14.79;66.96;99392.34;5101604;28;20192;-65
2021/11/01 02:09:47;;;;;;;7.40;4.07;;;;;;;14.59;67.49;99390.25;5101760;28;20373;-65
2021/11/01 02:12:17;;;;;;;9.50;4.13;;;;;;;14.31;68.15;99385.81;5100817;28;20381;-64
2021/11/01 02:15:00;;;;;;;8.93;4.30;;;;;;;14.42;67.70;99392.50;5101584;28;20381;-64
2021/11/01 02:17:30;;;;;;;7.13;4.27;;;;;;;14.29;68.38;99390.22;5100870;28;20468;-65
2021/11/01 02:20:06;;;;;;;10.57;3.97;;;;;;;14.42;67.94;99395.13;5100677;28;20764;-64
2021/11/01 02:22:44;;;;;;;10.87;5.70;;;;;;;14.38;67.80;99399.56;5101125;28;20481;-64
2021/11/01 02:25:48;;;;;;;10.37;4.07;;;;;;;14.04;68.51;99408.34;5101503;28;20460;-64
2021/11/01 02:28:16;;;;;;;11.20;4.03;;;;;;;13.91;69.45;99404.31;5100996;28;20408;-63
2021/11/01 02:30:44;;;;;;;12.80;4.30;;;;;;;14.06;69.07;99392.59;5100591;28;20789;-64
2021/11/01 02:33:09;;;;;;;9.60;4.20;;;;;;;14.25;67.75;99377.25;5101062;28;20425;-63
2021/11/01 02:35:36;;;;;;;9.40;3.93;;;;;;;14.15;68.11;99380.13;5100510;28;20407;-64
2021/11/01 02:38:04;;;;;;;10.47;3.63;;;;;;;14.38;67.58;99381.22;5101804;28;20172;-64
2021/11/01 02:40:30;;;;;;;10.20;4.07;;;;;;;14.21;67.92;99379.09;5100893;28;20688;-64
2021/11/01 02:42:57;;;;;;;14.30;4.90;;;;;;;14.54;66.46;99373.78;5100943;28;20447;-64
2021/11/01 02:45:23;;;;;;;8.50;3.73;;;;;;;14.23;67.75;99372.03;5101416;28;20173;-64
2021/11/01 02:47:49;;;;;;;13.00;4.07;;;;;;;14.42;67.38;99376.78;5100212;28;20421;-64
2021/11/01 02:50:16;;;;;;;13.67;4.20;;;;;;;14.44;67.71;99373.19;5100823;28;20840;-63
2021/11/01 02:52:41;;;;;;;14.20;4.37;;;;;;;14.22;67.80;99374.69;5101112;28;20199;-65
2021/11/01 02:55:08;;;;;;;8.50;4.50;;;;;;;14.05;69.09;99360.28;5100907;28;20434;-63
2021/11/01 02:57:34;;;;;;;9.03;3.93;;;;;;;14.09;68.64;99364.53;5100916;28;20168;-64
2021/11/01 03:00:02;;;;;;;9.10;4.57;;;;;;;14.15;69.13;99374.88;5101209;28;20460;-65
2021/11/01 03:02:27;;;;;;;8.87;3.90;;;;;;;13.95;69.74;99379.75;5100506;28;20414;-64
2021/11/01 03:04:52;;;;;;;10.53;4.47;;;;;;;13.97;69.58;99364.88;5100737;28;20442;-64
2021/11/01 03:07:18;;;;;;;12.17;4.40;;;;;;;14.24;68.84;99373.75;5101109;28;20190;-64
2021/11/01 03:09:45;;;;;;;11.50;3.90;;;;;;;13.76;70.38;99377.66;5100112;28;20176;-66
2021/11/01 03:12:13;;;;;;;7.67;3.60;;;;;;;13.89;71.84;99372.09;5100867;28;20203;-67
2021/11/01 03:14:42;;;;;;;13.77;4.50;;;;;;;13.47;71.64;99375.72;5101691;28;20455;-65
2021/11/01 03:17:14;;;;;;;9.70;4.10;;;;;;;13.78;71.15;99385.47;5100409;28;20479;-64
2021/11/01 03:19:42;;;;;;;9.87;5.70;;;;;;;13.61;71.40;99385.88;5100312;28;20413;-63
2021/11/01 03:22:08;;;;;;;10.53;4.53;;;;;;;13.71;71.07;99389.13;5100291;28;20410;-64
2021/11/01 03:24:34;;;;;;;9.40;4.47;;;;;;;13.97;69.88;99386.69;5100258;28;20473;-64
2021/11/01 03:27:04;;;;;;;9.47;4.30;;;;;;;13.87;70.33;99390.47;5100790;28;20251;-64
2021/11/01 03:29:32;;;;;;;13.53;4.57;;;;;;;13.48;71.87;99394.03;5099553;28;20449;-63
2021/11/01 03:31:59;;;;;;;16.40;4.53;;;;;;;14.00;70.38;99396.22;5100069;28;20381;-64
2021/11/01 03:34:26;;;;;;;13.03;4.47;;;;;;;13.57;71.42;99402.56;5099833;28;20867;-65
2021/11/01 03:36:52;;;;;;;14.80;4.50;;;;;;;13.87;70.69;99400.94;5099393;28;20510;-63
2021/11/01 03:39:18;;;;;;;12.83;4.30;;;;;;;13.64;71.30;99405.00;5099297;28;20425;-63
2021/11/01 03:41:43;;;;;;;8.80;4.57;;;;;;;13.54;71.36;99407.88;5100266;28;20823;-64
2021/11/01 03:44:16;;;;;;;13.90;4.23;;;;;;;13.27;72.31;99420.66;5099034;28;20242;-64
2021/11/01 03:49:09;;;;;;;11.63;5.27;;;;;;;13.23;72.07;99427.75;5100183;28;20395;-64
2021/11/01 03:51:43;;;;;;;9.53;4.37;;;;;;;13.26;72.05;99429.41;5099332;28;20299;-64
2021/11/01 03:54:12;;;;;;;8.47;3.80;;;;;;;13.64;71.88;99430.34;5099580;28;20527;-64
2021/11/01 03:56:38;;;;;;;10.57;4.20;;;;;;;13.93;69.61;99420.88;5099302;28;20781;-64
2021/11/01 03:59:04;;;;;;;11.10;4.67;;;;;;;13.64;70.42;99430.34;5098480;28;20916;-64
2021/11/01 04:01:29;;;;;;;16.10;5.20;;;;;;;13.39;70.93;99435.28;5099809;28;20377;-64
2021/11/01 04:03:55;;;;;;;9.40;4.40;;;;;;;13.47;71.44;99434.19;5099520;28;20348;-64
2021/11/01 04:06:22;;;;;;;13.80;4.40;;;;;;;13.59;70.86;99425.19;5099453;28;20179;-63
2021/11/01 04:08:49;;;;;;;13.10;4.57;;;;;;;13.18;72.18;99431.34;5099829;28;20160;-65
2021/11/01 04:11:16;;;;;;;12.20;4.23;;;;;;;13.15;72.67;99427.03;5099112;28;20482;-65
2021/11/01 04:13:41;;;;;;;11.90;4.50;;;;;;;13.16;71.87;99435.75;5098388;28;20410;-65
2021/11/01 04:16:12;;;;;;;11.90;4.70;;;;;;;13.21;72.27;99442.59;5098931;28;20413;-65
2021/11/01 04:18:53;;;;;;;9.20;4.60;;;;;;;13.26;71.69;99419.81;5098471;28;20385;-64
2021/11/01 04:21:19;;;;;;;9.97;4.20;;;;;;;13.32;71.51;99432.75;5098931;28;20778;-64
2021/11/01 04:23:44;;;;;;;9.23;4.47;;;;;;;13.01;72.76;99434.34;5098868;28;20462;-65
2021/11/01 04:26:14;;;;;;;10.90;5.27;;;;;;;13.23;72.65;99425.13;5099022;28;20187;-64
2021/11/01 04:28:39;;;;;;;12.07;4.87;;;;;;;13.02;72.46;99425.59;5098940;28;20164;-63
2021/11/01 04:31:10;;;;;;;13.13;5.87;;;;;;;13.00;72.75;99433.47;5098950;28;20725;-63
2021/11/01 04:33:37;;;;;;;13.90;6.10;;;;;;;12.90;73.27;99443.25;5099073;28;20202;-63
2021/11/01 04:36:03;;;;;;;14.27;5.53;;;;;;;12.85;73.26;99429.41;5099358;28;20476;-64
2021/11/01 04:38:45;;;;;;;12.30;5.13;;;;;;;13.05;73.27;99430.75;5098826;28;20410;-64
2021/11/01 04:41:18;;;;;;;11.20;5.00;;;;;;;13.20;71.82;99422.56;5098876;28;20419;-64
2021/11/01 04:54:26;;;;;;;14.13;5.17;;;;;;;13.03;72.04;99427.31;5098670;28;20420;-63
2021/11/01 04:56:52;;;;;;;13.07;5.07;;;;;;;13.09;71.93;99433.25;5097809;28;20426;-65
2021/11/01 04:59:19;;;;;;;13.40;4.70;;;;;;;13.00;72.21;99430.00;5098529;28;20467;-64
2021/11/01 05:01:48;;;;;;;12.73;5.33;;;;;;;13.36;70.88;99424.88;5098270;28;20172;-65
2021/11/01 05:04:21;;;;;;;18.23;5.30;;;;;;;13.19;71.96;99428.72;5098922;28;20452;-64
2021/11/01 05:06:52;;;;;;;10.77;4.73;;;;;;;12.37;74.31;99432.13;5098405;28;20427;-65
2021/11/01 05:09:31;;;;;;;13.07;5.80;;;;;;;12.61;74.07;99436.00;5096505;28;20389;-64
2021/11/01 05:12:04;;;;;;;11.90;6.00;;;;;;;12.82;72.78;99433.88;5098190;28;20472;-63
2021/11/01 05:14:35;;;;;;;14.10;6.00;;;;;;;13.03;72.15;99428.19;5098483;28;20472;-64
2021/11/01 05:17:23;;;;;;;15.43;6.20;;;;;;;13.11;71.97;99457.66;5098284;28;20483;-63
2021/11/01 05:20:09;;;;;;;14.23;5.80;;;;;;;13.18;72.00;99452.28;5097346;28;20401;-63
2021/11/01 05:22:43;;;;;;;9.47;5.37;;;;;;;12.74;72.80;99457.53;5098079;28;20384;-64
2021/11/01 05:25:18;;;;;;;13.07;5.37;;;;;;;12.75;74.88;99457.50;5098315;28;20441;-63
2021/11/01 05:30:41;;;;;;;12.40;5.90;;;;;;;12.96;73.00;99460.56;5098137;28;20392;-63
2021/11/01 05:35:39;;;;;;;13.93;6.43;;;;;;;12.75;72.87;99447.06;5098331;28;20451;-64
2021/11/01 05:38:05;;;;;;;14.03;5.73;;;;;;;13.07;72.04;99437.69;5098143;28;20464;-64
2021/11/01 05:40:31;;;;;;;14.87;5.30;;;;;;;12.94;72.40;99433.59;5097334;28;20429;-63
2021/11/01 05:42:57;;;;;;;13.30;5.50;;;;;;;13.06;71.89;99443.81;5098545;28;20450;-65
2021/11/01 05:45:22;;;;;;;12.43;6.30;;;;;;;13.08;71.93;99441.16;5098041;28;20482;-66
2021/11/01 05:47:56;;;;;;;13.00;5.73;;;;;;;13.08;71.85;99446.38;5097886;28;20172;-67
2021/11/01 05:50:22;;;;;;;15.33;6.70;;;;;;;12.99;71.40;99444.84;5098240;28;20239;-64
2021/11/01 05:52:47;;;;;;;12.70;5.60;;;;;;;13.06;71.14;99448.19;5097674;28;20410;-66
2021/11/01 05:55:33;;;;;;;14.40;5.80;;;;;;;12.89;72.79;99445.91;5097947;28;20213;-67
2021/11/01 06:06:17;;;;;;;12.20;5.93;;;;;;;12.82;71.26;99466.09;5098047;28;20392;-67
2021/11/01 06:13:53;;;;;;;10.37;6.00;;;;;;;13.00;70.74;99464.84;5097920;28;20410;-65
2021/11/01 06:16:19;;;;;;;13.90;7.10;;;;;;;13.24;70.27;99462.63;5097678;28;20261;-64
2021/11/01 06:18:44;;;;;;;15.93;7.03;;;;;;;12.66;71.59;99468.16;5098204;28;20389;-68
2021/11/01 06:21:14;;;;;;;11.53;5.97;;;;;;;12.89;71.10;99472.06;5099607;28;20255;-66
2021/11/01 06:23:52;;;;;;;14.57;6.53;;;;;;;13.01;70.65;99479.66;5101620;28;20448;-64
2021/11/01 06:26:19;;;;;;;17.70;6.70;;;;;;;13.01;70.31;99470.97;5101356;28;20446;-64
2021/11/01 06:28:46;;;;;;;12.73;6.70;;;;;;;13.24;69.71;99465.25;5101186;28;20817;-64
2021/11/01 06:31:17;;;;;;;13.03;6.53;;;;;;;13.01;70.48;99476.19;5100643;28;20747;-64
2021/11/01 06:34:15;;;;;;;16.43;6.83;;;;;;;12.69;71.46;99473.34;5101043;28;20396;-66
2021/11/01 06:39:41;;;;;;;11.13;6.30;;;;;;;12.82;71.96;99467.88;5101135;28;20416;-64
2021/11/01 06:42:22;;;;;;;14.73;6.60;;;;;;;13.17;69.44;99466.28;5101138;28;20393;-64
2021/11/01 06:44:56;;;;;;;12.23;6.60;;;;;;;12.90;70.14;99474.66;5100941;28;20387;-65
2021/11/01 06:52:59;;;;;;;12.10;6.60;;;;;;;12.85;70.09;99467.78;5100635;28;20442;-65
2021/11/01 07:19:13;;;;;;;13.67;6.43;;;;;;;13.06;69.11;99501.38;5120722;28;20671;-70
2021/11/01 07:30:26;;;;;;;15.60;5.47;;;;;;;12.36;70.71;99514.88;5100426;28;20579;-69
2021/11/01 08:24:52;;;;;;;5.87;4.17;;;;;;;12.61;67.56;99545.81;5078885;28;20440;-68
2021/11/01 08:43:21;;;;;;;7.90;4.50;;;;;;;12.71;67.16;99538.69;5078034;28;20463;-67
2021/11/01 09:02:01;;;;;;;7.47;3.60;;;;;;;12.98;65.74;99534.66;5078445;28;20388;-67
2021/11/01 09:10:17;;;;;;;6.87;4.03;;;;;;;13.67;62.78;99545.47;5037510;28;20838;-67
2021/11/01 09:13:10;;;;;;;8.53;3.63;;;;;;;13.72;61.99;99548.88;5065509;28;20389;-67
2021/11/01 09:21:19;;;;;;;7.30;3.87;;;;;;;14.14;59.81;99540.03;5078045;28;20496;-67
2021/11/01 09:23:51;;;;;;;10.80;4.10;;;;;;;14.57;59.40;99543.31;5077977;28;20458;-68
2021/11/01 09:42:46;;;;;;;7.60;3.73;;;;;;;16.28;53.58;99545.38;5077790;28;20215;-68
2021/11/01 09:45:11;;;;;;;6.77;3.77;;;;;;;16.22;53.45;99550.84;5078101;28;20413;-67
2021/11/01 09:47:37;;;;;;;9.30;3.67;;;;;;;15.45;55.33;99554.03;5077796;28;20452;-67
2021/11/01 09:50:04;;;;;;;6.03;3.83;;;;;;;15.08;56.47;99561.22;5060476;28;20593;-68
2021/11/01 09:52:30;;;;;;;7.00;3.67;;;;;;;15.38;55.88;99563.88;5078234;28;20843;-67
2021/11/01 09:54:58;;;;;;;6.83;3.97;;;;;;;15.88;54.17;99558.03;5077932;28;20836;-67
2021/11/01 09:57:33;;;;;;;7.40;4.20;;;;;;;17.64;49.25;99553.72;5081926;28;20476;-68
2021/11/01 09:59:59;;;;;;;9.70;3.57;;;;;;;17.82;48.50;99557.44;5081676;28;20828;-67
2021/11/01 10:02:25;;;;;;;4.40;3.10;;;;;;;16.50;51.08;99563.94;5081671;28;20423;-68
2021/11/01 10:04:53;;;;;;;9.53;3.90;;;;;;;17.32;50.01;99559.31;5064808;28;20199;-68
2021/11/01 10:07:26;;;;;;;4.37;2.97;;;;;;;16.82;51.00;99570.72;5081724;28;20823;-67
2021/11/01 10:10:06;;;;;;;8.40;3.53;;;;;;;16.24;52.24;99570.06;5081528;28;20431;-68
2021/11/01 10:12:35;;;;;;;7.37;3.53;;;;;;;15.67;53.22;99577.91;5081626;28;20403;-68
2021/11/01 10:18:06;;;;;;;8.20;4.23;;;;;;;15.40;54.38;99569.94;5081630;28;20910;-67
2021/11/01 10:20:33;;;;;;;10.40;3.80;;;;;;;15.87;53.41;99571.22;5081418;28;20485;-67
2021/11/01 10:22:59;;;;;;;10.00;4.03;;;;;;;16.15;51.93;99556.28;5081232;28;20509;-67
2021/11/01 10:25:25;;;;;;;5.70;3.40;;;;;;;15.98;51.75;99556.84;5081307;28;20782;-67
2021/11/01 10:27:56;;;;;;;8.90;3.83;;;;;;;15.67;53.42;99564.78;5081823;28;20433;-67
2021/11/01 10:30:32;;;;;;;6.23;3.80;;;;;;;15.48;53.30;99553.97;5081167;28;20389;-67
2021/11/01 10:33:00;;;;;;;7.23;4.10;;;;;;;15.55;53.14;99557.28;5081164;28;20414;-67
2021/11/01 10:35:25;;;;;;;9.63;5.60;;;;;;;16.44;50.34;99546.59;5063549;28;20444;-68
2021/11/01 10:38:19;;;;;;;5.80;3.53;;;;;;;16.95;49.70;99551.88;5081033;28;20501;-67
2021/11/01 11:14:37;;;;;;;9.60;3.90;;;;;;;16.61;49.05;99532.84;5080740;28;20922;-67
2021/11/01 11:17:16;;;;;;;11.90;3.87;;;;;;;16.30;49.74;99535.66;5080581;28;20437;-67
2021/11/01 11:20:07;;;;;;;7.73;3.50;;;;;;;16.51;49.21;99528.81;5080481;28;20840;-67
2021/11/01 11:22:55;;;;;;;6.20;4.03;;;;;;;15.55;51.28;99536.25;5064436;28;20438;-67
2021/11/01 11:25:43;;;;;;;6.60;3.63;;;;;;;15.60;50.47;99531.72;5079227;28;20677;-68
2021/11/01 11:28:44;;;;;;;10.43;3.50;;;;;;;15.65;50.90;99528.06;5080264;28;20447;-66
2021/11/01 11:33:53;;;;;;;6.73;4.10;;;;;;;16.79;49.49;99544.50;5079837;28;20419;-69
2021/11/01 11:47:05;;;;;;;6.50;3.50;;;;;;;17.15;49.44;99532.72;5079642;28;20227;-68
2021/11/01 11:47:25;;;;;;;5.57;3.60;;;;;;;16.08;49.78;99536.38;5079107;28;20411;-69
2021/11/01 11:49:52;;;;;;;8.40;4.37;;;;;;;16.45;49.13;99543.06;5079717;28;20386;-69
2021/11/01 11:52:23;;;;;;;6.37;4.43;;;;;;;16.31;48.73;99542.66;5078917;28;20467;-69
2021/11/01 11:54:53;;;;;;;6.10;3.87;;;;;;;16.29;49.70;99539.19;5079186;28;20430;-69
2021/11/01 11:57:26;;;;;;;7.30;4.30;;;;;;;15.85;50.46;99546.75;5078864;28;20500;-69
2021/11/01 11:59:53;;;;;;;6.27;4.73;;;;;;;17.11;47.52;99555.69;5079171;28;20411;-69
2021/11/01 12:02:38;;;;;;;7.77;4.70;;;;;;;16.53;48.72;99534.88;5062030;28;20472;-69
2021/11/01 12:05:14;;;;;;;7.30;3.70;;;;;;;15.91;50.33;99536.94;5079233;28;20399;-68
2021/11/01 12:08:01;;;;;;;4.93;3.70;;;;;;;15.76;50.14;99538.22;5079514;28;20436;-70
2021/11/01 12:11:11;;;;;;;8.30;4.40;;;;;;;16.87;48.66;99538.09;5061823;28;20415;-68
2021/11/01 12:14:17;;;;;;;8.43;4.17;;;;;;;16.46;49.61;99525.47;5079123;28;20464;-70
2021/11/01 12:19:03;;;;;;;6.50;4.20;;;;;;;15.62;50.35;99532.53;5078908;28;20410;-69
2021/11/01 12:21:31;;;;;;;4.90;3.70;;;;;;;16.37;49.63;99524.00;5078953;28;20415;-68
2021/11/01 12:23:56;;;;;;;7.53;4.80;;;;;;;16.14;48.76;99533.53;5076802;28;20727;-67
2021/11/01 12:26:24;;;;;;;6.93;4.50;;;;;;;17.06;46.96;99527.81;5078896;28;20398;-66
2021/11/01 12:28:54;;;;;;;6.70;4.23;;;;;;;17.25;46.62;99528.84;5077897;28;20566;-66
2021/11/01 12:31:20;;;;;;;8.10;4.17;;;;;;;16.41;48.50;99525.66;5061211;28;20465;-66
2021/11/01 12:36:14;;;;;;;13.57;4.37;;;;;;;16.32;49.03;99536.47;5078295;28;20459;-67
2021/11/01 12:41:42;;;;;;;6.20;4.30;;;;;;;15.80;49.78;99539.88;5061301;28;20169;-66
2021/11/01 12:57:44;;;;;;;6.23;4.50;;;;;;;15.81;48.35;99533.69;5078349;28;20468;-64
2021/11/01 13:00:10;;;;;;;7.93;4.60;;;;;;;16.09;48.33;99543.34;5078187;28;20454;-66
2021/11/01 13:02:39;;;;;;;5.40;4.70;;;;;;;15.79;49.44;99537.25;5078151;28;20401;-64
2021/11/01 13:05:17;;;;;;;8.43;5.97;;;;;;;16.24;48.26;99535.88;5061541;28;20429;-64
2021/11/01 13:07:58;;;;;;;6.50;4.80;;;;;;;16.07;48.71;99550.41;5077996;28;20419;-65
2021/11/01 13:10:36;;;;;;;5.10;4.60;;;;;;;15.86;48.89;99543.22;5077647;28;20502;-65
2021/11/01 13:19:09;;;;;;;5.73;4.37;;;;;;;15.74;49.29;99547.06;5077980;28;20412;-66
2021/11/01 13:21:49;;;;;;;6.27;4.73;;;;;;;16.00;48.75;99547.13;5078080;28;20426;-66
2021/11/01 13:24:16;;;;;;;6.30;4.70;;;;;;;15.24;50.17;99543.28;5077616;28;20839;-66
2021/11/01 13:34:39;;;;;;;5.97;4.60;;;;;;;15.61;50.01;99543.94;5077759;28;20415;-64
2021/11/01 13:37:36;;;;;;;8.43;5.30;;;;;;;14.88;50.98;99563.53;5078084;28;20506;-64
2021/11/01 13:40:14;;;;;;;8.80;6.10;;;;;;;14.73;51.54;99573.53;5077571;28;20409;-66
2021/11/01 13:42:46;;;;;;;5.33;4.83;;;;;;;14.60;51.84;99579.94;5077306;28;20400;-65
2021/11/01 13:45:16;;;;;;;7.60;5.10;;;;;;;14.47;52.68;99572.41;5061116;28;20390;-65
2021/11/01 13:47:47;;;;;;;7.83;5.10;;;;;;;14.31;53.04;99577.19;5060356;28;20390;-65
2021/11/01 13:50:17;;;;;;;8.57;5.13;;;;;;;14.40;53.38;99573.47;5077547;28;20400;-65
2021/11/01 13:52:45;;;;;;;5.90;4.63;;;;;;;14.55;53.26;99581.84;5077577;28;20407;-65
2021/11/01 13:55:22;;;;;;;7.50;6.20;;;;;;;14.63;53.01;99585.16;5077679;28;20419;-65
2021/11/01 13:57:56;;;;;;;11.40;7.20;;;;;;;14.96;52.31;99585.19;5077713;28;20401;-65
2021/11/01 14:11:53;;;;;;;9.10;5.10;;;;;;;15.01;52.06;99611.31;5079228;28;20443;-66
2021/11/01 14:19:58;;;;;;;7.30;5.30;;;;;;;14.87;52.42;99598.53;5077145;28;20507;-65
2021/11/01 14:28:03;;;;;;;6.90;5.23;;;;;;;14.87;51.91;99595.91;5077443;28;20417;-66
2021/11/01 15:00:19;;;;;;;7.40;5.80;;;;;;;14.51;53.39;99611.69;5080131;28;20473;-69
2021/11/01 15:03:43;;;;;;;10.57;5.50;;;;;;;14.23;53.80;99615.81;5079881;28;20173;-69
2021/11/01 15:11:29;;;;;;;11.80;5.90;;;;;;;14.56;53.36;99617.66;5079877;28;20402;-69
2021/11/01 15:16:26;;;;;;;10.70;7.23;;;;;;;14.63;52.91;99628.00;5079765;28;20401;-69
2021/11/01 15:19:00;;;;;;;11.20;7.03;;;;;;;14.74;54.21;99627.72;5079903;28;20173;-69
2021/11/01 15:27:19;;;;;;;5.80;5.20;;;;;;;14.67;53.40;99623.53;5079997;28;20460;-70
2021/11/01 16:18:42;;;;;;;5.03;4.47;;;;;;;13.24;56.10;99653.66;5098840;28;20397;-65
2021/11/01 16:21:07;;;;;;;5.00;4.53;;;;;;;13.20;56.37;99659.84;5099103;28;20658;-65
2021/11/01 16:23:38;;;;;;;9.47;4.83;;;;;;;13.37;55.76;99655.19;5099805;28;20529;-65
2021/11/01 16:26:26;;;;;;;5.80;4.47;;;;;;;13.29;56.21;99659.69;5099212;28;20176;-64
2021/11/01 16:29:06;;;;;;;7.27;4.70;;;;;;;12.93;56.87;99667.31;5099258;28;20655;-65
2021/11/01 16:31:47;;;;;;;7.03;4.70;;;;;;;13.10;56.76;99665.25;5099102;28;20434;-65
2021/11/01 16:34:23;;;;;;;6.70;4.70;;;;;;;13.31;56.37;99665.75;5099532;28;20399;-64
2021/11/01 16:39:18;;;;;;;5.67;3.90;;;;;;;13.28;56.22;99671.03;5119679;28;20681;-65
2021/11/01 16:41:45;;;;;;;6.00;4.43;;;;;;;13.38;56.36;99664.78;5119451;28;20690;-64
2021/11/01 16:44:25;;;;;;;5.20;4.40;;;;;;;13.33;56.05;99666.59;5119371;28;20534;-65
2021/11/01 16:46:52;;;;;;;9.77;4.53;;;;;;;12.95;57.30;99670.78;5119700;28;20425;-65
2021/11/01 16:49:19;;;;;;;5.80;4.40;;;;;;;13.07;57.07;99667.94;5119396;28;20445;-65
2021/11/01 16:51:46;;;;;;;6.63;4.33;;;;;;;13.04;57.06;99673.19;5103558;28;20483;-64
2021/11/01 16:54:15;;;;;;;6.73;4.60;;;;;;;12.87;57.59;99670.03;5099086;28;20441;-64
2021/11/01 16:59:28;;;;;;;7.67;4.47;;;;;;;12.73;58.17;99678.09;5099092;28;20392;-64
2021/11/01 17:02:01;;;;;;;8.80;5.07;;;;;;;12.78;58.26;99676.28;5098640;28;20446;-65
2021/11/01 17:04:28;;;;;;;7.47;5.00;;;;;;;12.93;58.05;99678.63;5082039;28;20527;-63
2021/11/01 17:07:02;;;;;;;6.07;4.73;;;;;;;12.80;57.85;99683.22;5067255;28;20509;-64
2021/11/01 17:22:59;;;;;;;6.53;5.57;;;;;;;12.72;58.91;99687.72;5062650;28;20393;-65
2021/11/01 17:25:45;;;;;;;6.80;5.07;;;;;;;12.45;59.64;99673.31;5098075;28;20397;-66
2021/11/01 17:28:29;;;;;;;5.07;4.57;;;;;;;12.59;59.39;99684.41;5087345;28;20818;-65
2021/11/01 17:36:46;;;;;;;8.30;4.63;;;;;;;12.39;60.18;99681.25;5087333;28;20396;-63
2021/11/01 18:40:35;;;;;;;5.63;5.03;;;;;;;12.25;60.05;99710.19;5061274;28;20714;-64
2021/11/01 18:45:59;;;;;;;8.80;5.83;;;;;;;11.50;61.67;99727.59;5061012;28;20420;-66
2021/11/01 18:51:18;;;;;;;7.10;6.33;;;;;;;12.07;61.09;99720.00;5075089;28;20456;-65
2021/11/01 18:53:49;;;;;;;11.20;6.47;;;;;;;11.92;61.99;99720.16;5080683;28;20393;-64
2021/11/01 18:56:15;;;;;;;6.87;6.20;;;;;;;11.69;62.63;99721.31;5096974;28;20617;-65
2021/11/01 18:58:42;;;;;;;12.03;6.87;;;;;;;11.58;63.21;99712.72;5083188;28;20422;-71
2021/11/01 19:01:12;;;;;;;8.00;6.83;;;;;;;11.27;63.99;99713.91;5081568;28;20196;-65
2021/11/01 19:03:44;;;;;;;13.90;7.03;;;;;;;11.35;63.93;99713.84;5080497;28;20451;-66
2021/11/01 20:02:46;;;;;;;10.73;7.87;;;;;;;11.28;64.79;99705.22;5080562;28;20433;-67
2021/11/01 20:04:01;;;;;;;4.90;4.50;;;;;;;11.60;60.80;99731.84;5085188;28;20469;-67
2021/11/01 21:26:20;;;;;;;7.23;6.33;;;;;;;10.04;69.44;99733.88;5078189;28;20388;-66
2021/11/01 21:28:45;;;;;;;9.67;6.47;;;;;;;9.81;70.08;99727.88;5096006;28;20503;-65
2021/11/01 21:31:10;;;;;;;8.87;6.57;;;;;;;9.94;69.25;99724.34;5098310;28;20505;-64
2021/11/01 21:33:36;;;;;;;7.23;6.50;;;;;;;10.02;69.35;99729.53;5099004;28;20168;-65
2021/11/01 21:36:07;;;;;;;9.53;6.70;;;;;;;9.93;69.52;99733.91;5098633;28;20168;-65
2021/11/01 21:38:32;;;;;;;9.30;6.80;;;;;;;10.13;68.78;99745.97;5098407;28;20385;-65
2021/11/01 21:40:58;;;;;;;10.03;7.13;;;;;;;9.84;69.53;99744.34;5098395;28;20381;-67
2021/11/01 21:43:24;;;;;;;8.70;6.83;;;;;;;9.82;70.07;99732.22;5081136;28;20192;-65
2021/11/01 21:45:49;;;;;;;7.77;6.97;;;;;;;9.70;70.22;99747.00;5100405;28;20670;-65
2021/11/01 21:48:15;;;;;;;10.90;7.93;;;;;;;10.00;69.44;99739.06;5100824;28;20195;-66
2021/11/01 21:50:43;;;;;;;14.60;6.90;;;;;;;10.04;69.19;99739.06;5099218;28;20219;-65
2021/11/01 21:53:09;;;;;;;6.90;6.20;;;;;;;10.12;68.61;99744.25;5102696;28;20183;-65
2021/11/01 21:55:36;;;;;;;7.03;6.33;;;;;;;10.28;68.46;99726.78;5086277;28;20411;-66